sensor_id;sensor_type;location;lat;lon;timestamp;temperature;humidity
3067;DHT22;1544;48.834;9.194;2023-02-03T00:01:30;7.80;42.90
3067;DHT22;1544;48.834;9.194;2023-02-03T00:04:05;7.90;42.80
3067;DHT22;1544;48.834;9.194;2023-02-03T00:06:41;7.90;42.60
3067;DHT22;1544;48.834;9.194;2023-02-03T00:09:16;7.90;42.70
3067;DHT22;1544;48.834;9.194;2023-02-03T00:11:51;7.80;42.60
3067;DHT22;1544;48.834;9.194;2023-02-03T00:14:27;7.80;42.70
3067;DHT22;1544;48.834;9.194;2023-02-03T00:17:02;7.80;42.70
3067;DHT22;1544;48.834;9.194;2023-02-03T00:19:37;7.90;42.80
3067;DHT22;1544;48.834;9.194;2023-02-03T00:22:12;7.90;42.70
3067;DHT22;1544;48.834;9.194;2023-02-03T00:24:47;7.90;42.60
3067;DHT22;1544;48.834;9.194;2023-02-03T00:27:22;7.90;42.70
3067;DHT22;1544;48.834;9.194;2023-02-03T00:29:57;7.90;42.60
3067;DHT22;1544;48.834;9.194;2023-02-03T00:32:32;7.90;42.60
3067;DHT22;1544;48.834;9.194;2023-02-03T00:35:07;7.90;42.60
3067;DHT22;1544;48.834;9.194;2023-02-03T00:37:43;7.90;42.60
3067;DHT22;1544;48.834;9.194;2023-02-03T00:40:19;7.90;42.70
3067;DHT22;1544;48.834;9.194;2023-02-03T00:42:54;7.90;42.60
3067;DHT22;1544;48.834;9.194;2023-02-03T00:45:29;8.00;42.30
3067;DHT22;1544;48.834;9.194;2023-02-03T00:48:04;8.00;42.10
3067;DHT22;1544;48.834;9.194;2023-02-03T00:50:40;8.10;42.20
3067;DHT22;1544;48.834;9.194;2023-02-03T00:53:14;8.00;42.30
3067;DHT22;1544;48.834;9.194;2023-02-03T00:55:49;7.90;42.50
3067;DHT22;1544;48.834;9.194;2023-02-03T00:58:25;7.90;42.60
3067;DHT22;1544;48.834;9.194;2023-02-03T01:01:00;7.90;42.70
3067;DHT22;1544;48.834;9.194;2023-02-03T01:03:35;7.90;42.60
3067;DHT22;1544;48.834;9.194;2023-02-03T01:06:19;7.90;42.70
3067;DHT22;1544;48.834;9.194;2023-02-03T01:08:54;7.90;42.90
3067;DHT22;1544;48.834;9.194;2023-02-03T01:11:29;7.90;42.90
3067;DHT22;1544;48.834;9.194;2023-02-03T01:14:06;8.00;42.90
3067;DHT22;1544;48.834;9.194;2023-02-03T01:16:43;8.00;42.70
3067;DHT22;1544;48.834;9.194;2023-02-03T01:19:17;8.10;42.70
3067;DHT22;1544;48.834;9.194;2023-02-03T01:21:52;8.00;42.60
3067;DHT22;1544;48.834;9.194;2023-02-03T01:24:29;7.80;43.00
3067;DHT22;1544;48.834;9.194;2023-02-03T01:27:04;7.70;43.30
3067;DHT22;1544;48.834;9.194;2023-02-03T01:29:39;7.70;43.20
3067;DHT22;1544;48.834;9.194;2023-02-03T01:32:14;7.70;43.50
3067;DHT22;1544;48.834;9.194;2023-02-03T01:34:49;7.70;43.50
3067;DHT22;1544;48.834;9.194;2023-02-03T01:37:24;7.70;43.50
3067;DHT22;1544;48.834;9.194;2023-02-03T01:40:01;7.70;43.40
3067;DHT22;1544;48.834;9.194;2023-02-03T01:42:36;7.70;43.70
3067;DHT22;1544;48.834;9.194;2023-02-03T01:45:11;7.70;43.70
3067;DHT22;1544;48.834;9.194;2023-02-03T01:47:47;7.80;43.70
3067;DHT22;1544;48.834;9.194;2023-02-03T01:50:30;7.70;43.80
3067;DHT22;1544;48.834;9.194;2023-02-03T01:53:09;7.80;43.90
3067;DHT22;1544;48.834;9.194;2023-02-03T01:55:47;7.70;44.00
3067;DHT22;1544;48.834;9.194;2023-02-03T01:58:28;7.70;44.10
3067;DHT22;1544;48.834;9.194;2023-02-03T02:01:06;7.80;44.10
3067;DHT22;1544;48.834;9.194;2023-02-03T02:03:54;7.90;43.80
3067;DHT22;1544;48.834;9.194;2023-02-03T02:06:30;7.90;43.70
3067;DHT22;1544;48.834;9.194;2023-02-03T02:09:06;8.00;43.50
3067;DHT22;1544;48.834;9.194;2023-02-03T02:11:41;8.00;43.40
3067;DHT22;1544;48.834;9.194;2023-02-03T02:14:16;8.00;43.60
3067;DHT22;1544;48.834;9.194;2023-02-03T02:17:05;7.90;43.90
3067;DHT22;1544;48.834;9.194;2023-02-03T02:26:31;7.90;44.50
3067;DHT22;1544;48.834;9.194;2023-02-03T02:29:32;7.90;44.50
3067;DHT22;1544;48.834;9.194;2023-02-03T02:44:17;7.80;44.70
3067;DHT22;1544;48.834;9.194;2023-02-03T02:47:01;7.70;45.00
3067;DHT22;1544;48.834;9.194;2023-02-03T02:50:06;7.80;45.00
3067;DHT22;1544;48.834;9.194;2023-02-03T02:52:43;7.90;44.80
3067;DHT22;1544;48.834;9.194;2023-02-03T02:55:28;7.90;44.70
3067;DHT22;1544;48.834;9.194;2023-02-03T02:58:11;8.00;44.50
3067;DHT22;1544;48.834;9.194;2023-02-03T03:00:47;8.00;44.20
3067;DHT22;1544;48.834;9.194;2023-02-03T03:03:23;8.00;44.20
3067;DHT22;1544;48.834;9.194;2023-02-03T03:06:04;8.00;44.20
3067;DHT22;1544;48.834;9.194;2023-02-03T03:08:57;8.10;44.10
3067;DHT22;1544;48.834;9.194;2023-02-03T03:11:41;8.10;43.80
3067;DHT22;1544;48.834;9.194;2023-02-03T03:14:19;8.10;43.70
3067;DHT22;1544;48.834;9.194;2023-02-03T03:16:59;8.00;43.90
3067;DHT22;1544;48.834;9.194;2023-02-03T03:19:42;8.00;43.90
3067;DHT22;1544;48.834;9.194;2023-02-03T03:22:26;8.00;44.00
3067;DHT22;1544;48.834;9.194;2023-02-03T03:25:13;8.00;44.30
3067;DHT22;1544;48.834;9.194;2023-02-03T03:27:58;8.00;44.10
3067;DHT22;1544;48.834;9.194;2023-02-03T03:30:39;7.90;44.00
3067;DHT22;1544;48.834;9.194;2023-02-03T03:33:14;8.00;44.00
3067;DHT22;1544;48.834;9.194;2023-02-03T03:35:56;8.00;44.00
3067;DHT22;1544;48.834;9.194;2023-02-03T03:38:45;8.10;44.00
3067;DHT22;1544;48.834;9.194;2023-02-03T03:41:40;8.10;43.80
3067;DHT22;1544;48.834;9.194;2023-02-03T03:44:32;8.20;43.70
3067;DHT22;1544;48.834;9.194;2023-02-03T03:47:38;8.20;43.50
3067;DHT22;1544;48.834;9.194;2023-02-03T03:50:21;8.30;43.30
3067;DHT22;1544;48.834;9.194;2023-02-03T03:53:05;8.30;43.30
3067;DHT22;1544;48.834;9.194;2023-02-03T03:55:42;8.40;42.80
3067;DHT22;1544;48.834;9.194;2023-02-03T03:58:27;8.40;42.50
3067;DHT22;1544;48.834;9.194;2023-02-03T04:01:06;8.30;42.40
3067;DHT22;1544;48.834;9.194;2023-02-03T04:03:51;8.40;42.40
3067;DHT22;1544;48.834;9.194;2023-02-03T04:06:29;8.40;42.30
3067;DHT22;1544;48.834;9.194;2023-02-03T04:09:04;8.40;42.20
3067;DHT22;1544;48.834;9.194;2023-02-03T04:11:39;8.30;42.40
3067;DHT22;1544;48.834;9.194;2023-02-03T04:14:35;8.30;42.50
3067;DHT22;1544;48.834;9.194;2023-02-03T04:17:14;8.30;42.80
3067;DHT22;1544;48.834;9.194;2023-02-03T04:19:49;8.30;43.40
3067;DHT22;1544;48.834;9.194;2023-02-03T04:22:24;8.30;43.80
3067;DHT22;1544;48.834;9.194;2023-02-03T04:24:59;8.30;44.60
3067;DHT22;1544;48.834;9.194;2023-02-03T04:27:34;8.30;44.80
3067;DHT22;1544;48.834;9.194;2023-02-03T04:30:10;8.30;45.20
3067;DHT22;1544;48.834;9.194;2023-02-03T04:32:46;8.30;45.40
3067;DHT22;1544;48.834;9.194;2023-02-03T04:35:21;8.30;46.20
3067;DHT22;1544;48.834;9.194;2023-02-03T04:37:56;8.30;46.80
3067;DHT22;1544;48.834;9.194;2023-02-03T04:40:31;8.30;47.30
3067;DHT22;1544;48.834;9.194;2023-02-03T04:43:08;8.30;47.40
3067;DHT22;1544;48.834;9.194;2023-02-03T04:45:43;8.30;47.70
3067;DHT22;1544;48.834;9.194;2023-02-03T04:48:18;8.20;48.50
3067;DHT22;1544;48.834;9.194;2023-02-03T04:50:53;8.10;49.50
3067;DHT22;1544;48.834;9.194;2023-02-03T04:53:28;8.10;50.70
3067;DHT22;1544;48.834;9.194;2023-02-03T04:56:04;8.10;50.80
3067;DHT22;1544;48.834;9.194;2023-02-03T04:58:39;8.10;51.00
3067;DHT22;1544;48.834;9.194;2023-02-03T05:01:14;8.10;51.10
3067;DHT22;1544;48.834;9.194;2023-02-03T05:03:49;8.00;51.90
3067;DHT22;1544;48.834;9.194;2023-02-03T05:06:25;8.00;52.80
3067;DHT22;1544;48.834;9.194;2023-02-03T05:09:06;8.00;52.70
3067;DHT22;1544;48.834;9.194;2023-02-03T05:11:41;8.00;52.80
3067;DHT22;1544;48.834;9.194;2023-02-03T05:14:16;8.00;53.50
3067;DHT22;1544;48.834;9.194;2023-02-03T05:16:51;7.90;53.60
3067;DHT22;1544;48.834;9.194;2023-02-03T05:19:26;7.80;54.20
3067;DHT22;1544;48.834;9.194;2023-02-03T05:22:00;7.90;54.50
3067;DHT22;1544;48.834;9.194;2023-02-03T05:24:35;7.90;54.80
3067;DHT22;1544;48.834;9.194;2023-02-03T05:27:10;7.90;54.50
3067;DHT22;1544;48.834;9.194;2023-02-03T05:29:45;7.90;54.40
3067;DHT22;1544;48.834;9.194;2023-02-03T05:32:20;7.90;54.40
3067;DHT22;1544;48.834;9.194;2023-02-03T05:34:55;7.90;54.90
3067;DHT22;1544;48.834;9.194;2023-02-03T05:37:30;7.90;55.10
3067;DHT22;1544;48.834;9.194;2023-02-03T05:40:05;7.80;54.20
3067;DHT22;1544;48.834;9.194;2023-02-03T05:43:00;7.80;54.60
3067;DHT22;1544;48.834;9.194;2023-02-03T05:45:35;7.80;54.60
3067;DHT22;1544;48.834;9.194;2023-02-03T05:48:10;7.80;55.00
3067;DHT22;1544;48.834;9.194;2023-02-03T05:50:45;7.80;55.40
3067;DHT22;1544;48.834;9.194;2023-02-03T05:53:20;7.70;56.30
3067;DHT22;1544;48.834;9.194;2023-02-03T05:55:56;7.70;57.00
3067;DHT22;1544;48.834;9.194;2023-02-03T05:58:31;7.70;57.20
3067;DHT22;1544;48.834;9.194;2023-02-03T06:01:06;7.70;57.80
3067;DHT22;1544;48.834;9.194;2023-02-03T06:03:41;7.70;58.10
3067;DHT22;1544;48.834;9.194;2023-02-03T06:06:19;7.70;58.20
3067;DHT22;1544;48.834;9.194;2023-02-03T06:08:54;7.70;57.50
3067;DHT22;1544;48.834;9.194;2023-02-03T06:11:31;7.70;57.20
3067;DHT22;1544;48.834;9.194;2023-02-03T06:14:07;7.70;55.90
3067;DHT22;1544;48.834;9.194;2023-02-03T06:16:42;7.70;56.20
3067;DHT22;1544;48.834;9.194;2023-02-03T06:19:17;7.70;57.00
3067;DHT22;1544;48.834;9.194;2023-02-03T06:21:52;7.80;55.80
3067;DHT22;1544;48.834;9.194;2023-02-03T06:24:27;8.70;56.30
3067;DHT22;1544;48.834;9.194;2023-02-03T06:27:02;7.80;56.00
3067;DHT22;1544;48.834;9.194;2023-02-03T06:29:37;7.80;56.20
3067;DHT22;1544;48.834;9.194;2023-02-03T06:32:12;7.80;56.60
3067;DHT22;1544;48.834;9.194;2023-02-03T06:34:47;7.80;57.80
3067;DHT22;1544;48.834;9.194;2023-02-03T06:37:21;7.70;58.10
3067;DHT22;1544;48.834;9.194;2023-02-03T06:39:58;7.70;58.70
3067;DHT22;1544;48.834;9.194;2023-02-03T06:42:33;7.80;58.30
3067;DHT22;1544;48.834;9.194;2023-02-03T06:45:08;7.80;58.30
3067;DHT22;1544;48.834;9.194;2023-02-03T06:47:44;7.70;58.40
3067;DHT22;1544;48.834;9.194;2023-02-03T06:50:19;7.70;58.70
3067;DHT22;1544;48.834;9.194;2023-02-03T06:52:54;7.70;58.90
3067;DHT22;1544;48.834;9.194;2023-02-03T06:55:29;7.70;58.80
3067;DHT22;1544;48.834;9.194;2023-02-03T06:58:04;7.70;58.60
3067;DHT22;1544;48.834;9.194;2023-02-03T07:00:39;7.60;59.00
3067;DHT22;1544;48.834;9.194;2023-02-03T07:03:14;7.60;58.70
3067;DHT22;1544;48.834;9.194;2023-02-03T07:05:49;7.50;59.50
3067;DHT22;1544;48.834;9.194;2023-02-03T07:08:24;7.60;59.80
3067;DHT22;1544;48.834;9.194;2023-02-03T07:10:59;7.60;59.80
3067;DHT22;1544;48.834;9.194;2023-02-03T07:13:34;7.50;60.40
3067;DHT22;1544;48.834;9.194;2023-02-03T07:16:09;7.50;61.10
3067;DHT22;1544;48.834;9.194;2023-02-03T07:18:44;7.50;61.40
3067;DHT22;1544;48.834;9.194;2023-02-03T07:21:22;7.60;60.60
3067;DHT22;1544;48.834;9.194;2023-02-03T07:23:57;7.60;60.00
3067;DHT22;1544;48.834;9.194;2023-02-03T07:26:32;7.60;59.80
3067;DHT22;1544;48.834;9.194;2023-02-03T07:29:07;7.50;60.20
3067;DHT22;1544;48.834;9.194;2023-02-03T07:31:42;7.50;59.90
3067;DHT22;1544;48.834;9.194;2023-02-03T07:34:17;7.50;60.40
3067;DHT22;1544;48.834;9.194;2023-02-03T07:36:52;7.60;59.80
3067;DHT22;1544;48.834;9.194;2023-02-03T07:39:26;7.60;59.30
3067;DHT22;1544;48.834;9.194;2023-02-03T07:42:01;7.60;58.60
3067;DHT22;1544;48.834;9.194;2023-02-03T07:44:40;7.70;58.70
3067;DHT22;1544;48.834;9.194;2023-02-03T07:47:15;7.60;58.90
3067;DHT22;1544;48.834;9.194;2023-02-03T07:49:50;7.70;58.80
3067;DHT22;1544;48.834;9.194;2023-02-03T07:52:25;7.70;58.50
3067;DHT22;1544;48.834;9.194;2023-02-03T07:55:00;7.70;57.80
3067;DHT22;1544;48.834;9.194;2023-02-03T07:57:35;8.40;58.40
3067;DHT22;1544;48.834;9.194;2023-02-03T08:00:12;7.70;57.90
3067;DHT22;1544;48.834;9.194;2023-02-03T08:02:48;7.70;57.70
3067;DHT22;1544;48.834;9.194;2023-02-03T08:05:23;7.70;58.70
3067;DHT22;1544;48.834;9.194;2023-02-03T08:07:58;7.70;58.80
3067;DHT22;1544;48.834;9.194;2023-02-03T08:10:33;7.70;59.10
3067;DHT22;1544;48.834;9.194;2023-02-03T08:13:08;7.80;58.70
3067;DHT22;1544;48.834;9.194;2023-02-03T08:15:43;7.90;58.10
3067;DHT22;1544;48.834;9.194;2023-02-03T08:18:18;7.90;57.70
3067;DHT22;1544;48.834;9.194;2023-02-03T08:20:53;8.00;56.80
3067;DHT22;1544;48.834;9.194;2023-02-03T08:23:28;8.10;56.70
3067;DHT22;1544;48.834;9.194;2023-02-03T08:26:03;8.10;55.60
3067;DHT22;1544;48.834;9.194;2023-02-03T08:28:38;8.00;56.70
3067;DHT22;1544;48.834;9.194;2023-02-03T08:31:13;8.10;57.00
3067;DHT22;1544;48.834;9.194;2023-02-03T08:33:48;8.10;57.50
3067;DHT22;1544;48.834;9.194;2023-02-03T08:36:24;8.10;57.30
3067;DHT22;1544;48.834;9.194;2023-02-03T08:38:59;8.20;56.90
3067;DHT22;1544;48.834;9.194;2023-02-03T08:41:34;8.20;57.10
3067;DHT22;1544;48.834;9.194;2023-02-03T08:44:09;8.30;56.00
3067;DHT22;1544;48.834;9.194;2023-02-03T08:46:47;8.30;56.10
3067;DHT22;1544;48.834;9.194;2023-02-03T08:49:25;8.40;55.90
3067;DHT22;1544;48.834;9.194;2023-02-03T08:52:01;8.50;56.00
3067;DHT22;1544;48.834;9.194;2023-02-03T08:54:36;8.60;55.30
3067;DHT22;1544;48.834;9.194;2023-02-03T08:57:11;8.60;55.40
3067;DHT22;1544;48.834;9.194;2023-02-03T08:59:46;8.50;55.20
3067;DHT22;1544;48.834;9.194;2023-02-03T09:02:21;8.50;55.20
3067;DHT22;1544;48.834;9.194;2023-02-03T09:04:56;8.60;54.90
3067;DHT22;1544;48.834;9.194;2023-02-03T09:07:31;8.60;54.90
3067;DHT22;1544;48.834;9.194;2023-02-03T09:10:06;8.60;54.70
3067;DHT22;1544;48.834;9.194;2023-02-03T09:12:41;8.70;55.30
3067;DHT22;1544;48.834;9.194;2023-02-03T09:15:16;8.60;56.90
3067;DHT22;1544;48.834;9.194;2023-02-03T09:17:51;8.70;57.20
3067;DHT22;1544;48.834;9.194;2023-02-03T09:20:28;8.70;56.80
3067;DHT22;1544;48.834;9.194;2023-02-03T09:23:04;8.70;57.00
3067;DHT22;1544;48.834;9.194;2023-02-03T09:25:39;8.70;56.20
3067;DHT22;1544;48.834;9.194;2023-02-03T09:28:16;8.70;55.40
3067;DHT22;1544;48.834;9.194;2023-02-03T09:30:51;8.90;54.80
3067;DHT22;1544;48.834;9.194;2023-02-03T09:33:26;9.00;52.60
3067;DHT22;1544;48.834;9.194;2023-02-03T09:36:02;9.00;51.90
3067;DHT22;1544;48.834;9.194;2023-02-03T09:38:37;9.00;49.70
3067;DHT22;1544;48.834;9.194;2023-02-03T09:42:02;9.10;49.70
3067;DHT22;1544;48.834;9.194;2023-02-03T09:44:33;9.30;49.20
3067;DHT22;1544;48.834;9.194;2023-02-03T09:47:15;9.30;49.10
3067;DHT22;1544;48.834;9.194;2023-02-03T09:50:01;9.20;49.40
3067;DHT22;1544;48.834;9.194;2023-02-03T09:52:41;9.30;48.70
3067;DHT22;1544;48.834;9.194;2023-02-03T09:55:29;9.30;48.10
3067;DHT22;1544;48.834;9.194;2023-02-03T09:58:11;9.40;47.00
3067;DHT22;1544;48.834;9.194;2023-02-03T10:00:57;9.40;47.40
3067;DHT22;1544;48.834;9.194;2023-02-03T10:03:45;9.50;46.20
3067;DHT22;1544;48.834;9.194;2023-02-03T10:06:38;9.60;46.80
3067;DHT22;1544;48.834;9.194;2023-02-03T10:09:38;9.70;47.60
3067;DHT22;1544;48.834;9.194;2023-02-03T10:12:45;9.80;47.20
3067;DHT22;1544;48.834;9.194;2023-02-03T10:18:47;9.90;45.80
3067;DHT22;1544;48.834;9.194;2023-02-03T10:21:36;9.90;46.20
3067;DHT22;1544;48.834;9.194;2023-02-03T10:24:39;10.00;44.40
3067;DHT22;1544;48.834;9.194;2023-02-03T10:27:19;9.90;43.50
3067;DHT22;1544;48.834;9.194;2023-02-03T10:29:57;10.60;42.80
3067;DHT22;1544;48.834;9.194;2023-02-03T10:32:35;9.90;43.40
3067;DHT22;1544;48.834;9.194;2023-02-03T10:35:12;9.90;42.70
3067;DHT22;1544;48.834;9.194;2023-02-03T10:37:50;9.90;42.70
3067;DHT22;1544;48.834;9.194;2023-02-03T10:40:27;9.90;42.50
3067;DHT22;1544;48.834;9.194;2023-02-03T10:43:03;10.00;41.20
3067;DHT22;1544;48.834;9.194;2023-02-03T10:45:57;10.00;40.80
3067;DHT22;1544;48.834;9.194;2023-02-03T10:48:33;9.90;41.50
3067;DHT22;1544;48.834;9.194;2023-02-03T10:53:52;10.00;40.50
3067;DHT22;1544;48.834;9.194;2023-02-03T10:56:34;10.10;42.20
3067;DHT22;1544;48.834;9.194;2023-02-03T10:59:27;10.30;42.20
3067;DHT22;1544;48.834;9.194;2023-02-03T11:02:19;10.40;40.00
3067;DHT22;1544;48.834;9.194;2023-02-03T11:07:50;10.70;39.60
3067;DHT22;1544;48.834;9.194;2023-02-03T11:10:35;10.60;39.10
3067;DHT22;1544;48.834;9.194;2023-02-03T11:13:25;10.60;39.10
3067;DHT22;1544;48.834;9.194;2023-02-03T11:16:05;10.50;39.40
3067;DHT22;1544;48.834;9.194;2023-02-03T11:18:54;10.60;39.20
3067;DHT22;1544;48.834;9.194;2023-02-03T11:21:42;10.50;38.30
3067;DHT22;1544;48.834;9.194;2023-02-03T11:24:23;9.80;38.20
3067;DHT22;1544;48.834;9.194;2023-02-03T11:27:03;10.40;38.70
3067;DHT22;1544;48.834;9.194;2023-02-03T11:29:49;10.30;39.40
3067;DHT22;1544;48.834;9.194;2023-02-03T11:32:33;10.30;38.40
3067;DHT22;1544;48.834;9.194;2023-02-03T11:35:27;10.30;39.10
3067;DHT22;1544;48.834;9.194;2023-02-03T11:38:04;10.40;38.10
3067;DHT22;1544;48.834;9.194;2023-02-03T11:41:19;10.40;37.70
3067;DHT22;1544;48.834;9.194;2023-02-03T11:43:57;10.30;39.20
3067;DHT22;1544;48.834;9.194;2023-02-03T11:46:36;10.30;38.50
3067;DHT22;1544;48.834;9.194;2023-02-03T12:05:55;10.50;37.90
3067;DHT22;1544;48.834;9.194;2023-02-03T12:09:06;10.70;37.60
3067;DHT22;1544;48.834;9.194;2023-02-03T12:18:48;10.80;36.10
3067;DHT22;1544;48.834;9.194;2023-02-03T12:21:43;10.70;36.40
3067;DHT22;1544;48.834;9.194;2023-02-03T12:30:24;10.40;36.30
3067;DHT22;1544;48.834;9.194;2023-02-03T12:33:16;10.20;37.50
3067;DHT22;1544;48.834;9.194;2023-02-03T12:36:07;10.20;36.50
3067;DHT22;1544;48.834;9.194;2023-02-03T12:38:53;10.20;36.50
3067;DHT22;1544;48.834;9.194;2023-02-03T12:41:38;10.10;37.00
3067;DHT22;1544;48.834;9.194;2023-02-03T12:44:20;10.00;36.80
3067;DHT22;1544;48.834;9.194;2023-02-03T12:49:58;10.10;36.60
3067;DHT22;1544;48.834;9.194;2023-02-03T12:52:43;10.00;36.50
3067;DHT22;1544;48.834;9.194;2023-02-03T12:56:02;10.00;36.50
3067;DHT22;1544;48.834;9.194;2023-02-03T12:58:48;9.80;37.90
3067;DHT22;1544;48.834;9.194;2023-02-03T13:01:56;9.80;37.80
3067;DHT22;1544;48.834;9.194;2023-02-03T13:04:50;9.80;38.00
3067;DHT22;1544;48.834;9.194;2023-02-03T13:07:46;9.90;37.70
3067;DHT22;1544;48.834;9.194;2023-02-03T13:10:35;10.00;36.60
3067;DHT22;1544;48.834;9.194;2023-02-03T13:13:16;9.90;37.90
3067;DHT22;1544;48.834;9.194;2023-02-03T13:15:57;9.80;37.50
3067;DHT22;1544;48.834;9.194;2023-02-03T13:18:48;9.90;37.40
3067;DHT22;1544;48.834;9.194;2023-02-03T13:21:26;9.90;37.40
3067;DHT22;1544;48.834;9.194;2023-02-03T13:24:03;9.90;37.30
3067;DHT22;1544;48.834;9.194;2023-02-03T13:30:06;10.00;36.40
3067;DHT22;1544;48.834;9.194;2023-02-03T13:33:30;9.90;36.90
3067;DHT22;1544;48.834;9.194;2023-02-03T13:40:14;9.90;37.60
3067;DHT22;1544;48.834;9.194;2023-02-03T13:42:57;9.70;37.70
3067;DHT22;1544;48.834;9.194;2023-02-03T13:45:44;9.70;37.90
3067;DHT22;1544;48.834;9.194;2023-02-03T13:48:24;9.60;37.90
3067;DHT22;1544;48.834;9.194;2023-02-03T13:53:50;9.70;38.00
3067;DHT22;1544;48.834;9.194;2023-02-03T13:56:26;9.60;38.00
3067;DHT22;1544;48.834;9.194;2023-02-03T13:59:26;9.70;37.80
3067;DHT22;1544;48.834;9.194;2023-02-03T14:04:58;9.80;37.80
3067;DHT22;1544;48.834;9.194;2023-02-03T14:07:39;9.80;37.90
3067;DHT22;1544;48.834;9.194;2023-02-03T14:10:21;9.80;38.00
3067;DHT22;1544;48.834;9.194;2023-02-03T14:12:58;9.70;38.20
3067;DHT22;1544;48.834;9.194;2023-02-03T14:15:33;9.80;38.00
3067;DHT22;1544;48.834;9.194;2023-02-03T14:18:30;9.80;38.00
3067;DHT22;1544;48.834;9.194;2023-02-03T14:21:13;9.80;38.20
3067;DHT22;1544;48.834;9.194;2023-02-03T14:24:04;9.80;37.70
3067;DHT22;1544;48.834;9.194;2023-02-03T14:26:43;9.80;37.70
3067;DHT22;1544;48.834;9.194;2023-02-03T14:29:31;9.70;38.00
3067;DHT22;1544;48.834;9.194;2023-02-03T14:32:10;9.70;38.00
3067;DHT22;1544;48.834;9.194;2023-02-03T14:34:47;9.70;38.10
3067;DHT22;1544;48.834;9.194;2023-02-03T14:37:25;9.60;38.50
3067;DHT22;1544;48.834;9.194;2023-02-03T14:43:34;9.60;39.20
3067;DHT22;1544;48.834;9.194;2023-02-03T14:46:39;9.60;39.00
3067;DHT22;1544;48.834;9.194;2023-02-03T14:49:48;9.90;39.00
3067;DHT22;1544;48.834;9.194;2023-02-03T14:56:03;9.60;39.00
3067;DHT22;1544;48.834;9.194;2023-02-03T14:59:03;9.50;39.10
3067;DHT22;1544;48.834;9.194;2023-02-03T15:06:53;9.50;39.40
3067;DHT22;1544;48.834;9.194;2023-02-03T15:09:48;9.50;39.20
3067;DHT22;1544;48.834;9.194;2023-02-03T15:12:26;9.50;39.40
3067;DHT22;1544;48.834;9.194;2023-02-03T15:15:27;9.50;39.30
3067;DHT22;1544;48.834;9.194;2023-02-03T15:18:28;10.60;39.60
3067;DHT22;1544;48.834;9.194;2023-02-03T15:21:05;9.50;39.40
3067;DHT22;1544;48.834;9.194;2023-02-03T15:23:42;9.50;39.50
3067;DHT22;1544;48.834;9.194;2023-02-03T15:26:26;9.50;40.10
3067;DHT22;1544;48.834;9.194;2023-02-03T15:29:03;9.40;39.70
3067;DHT22;1544;48.834;9.194;2023-02-03T15:31:42;9.50;39.90
3067;DHT22;1544;48.834;9.194;2023-02-03T15:34:29;9.50;40.20
3067;DHT22;1544;48.834;9.194;2023-02-03T15:37:45;9.40;40.20
3067;DHT22;1544;48.834;9.194;2023-02-03T15:40:34;9.40;40.00
3067;DHT22;1544;48.834;9.194;2023-02-03T15:43:22;9.40;40.30
3067;DHT22;1544;48.834;9.194;2023-02-03T15:46:07;9.30;40.40
3067;DHT22;1544;48.834;9.194;2023-02-03T15:49:12;9.40;40.20
3067;DHT22;1544;48.834;9.194;2023-02-03T15:52:16;9.40;40.30
3067;DHT22;1544;48.834;9.194;2023-02-03T15:55:02;9.40;40.30
3067;DHT22;1544;48.834;9.194;2023-02-03T15:57:44;9.30;40.70
3067;DHT22;1544;48.834;9.194;2023-02-03T16:00:32;9.40;40.70
3067;DHT22;1544;48.834;9.194;2023-02-03T16:03:17;9.40;40.90
3067;DHT22;1544;48.834;9.194;2023-02-03T16:05:55;9.30;41.50
3067;DHT22;1544;48.834;9.194;2023-02-03T16:08:41;9.40;42.30
3067;DHT22;1544;48.834;9.194;2023-02-03T16:14:08;9.20;44.90
3067;DHT22;1544;48.834;9.194;2023-02-03T16:16:51;9.20;45.90
3067;DHT22;1544;48.834;9.194;2023-02-03T16:19:39;9.10;47.20
3067;DHT22;1544;48.834;9.194;2023-02-03T16:22:28;9.00;48.10
3067;DHT22;1544;48.834;9.194;2023-02-03T16:25:20;9.00;47.90
3067;DHT22;1544;48.834;9.194;2023-02-03T16:31:19;9.00;49.20
3067;DHT22;1544;48.834;9.194;2023-02-03T16:34:16;9.00;50.10
3067;DHT22;1544;48.834;9.194;2023-02-03T16:40:21;8.90;51.40
3067;DHT22;1544;48.834;9.194;2023-02-03T16:43:15;8.10;51.50
3067;DHT22;1544;48.834;9.194;2023-02-03T16:46:10;8.90;52.30
3067;DHT22;1544;48.834;9.194;2023-02-03T16:49:04;8.80;52.10
3067;DHT22;1544;48.834;9.194;2023-02-03T16:51:57;8.80;52.00
3067;DHT22;1544;48.834;9.194;2023-02-03T16:54:32;8.80;52.60
3067;DHT22;1544;48.834;9.194;2023-02-03T16:57:07;8.80;53.00
3067;DHT22;1544;48.834;9.194;2023-02-03T16:59:42;8.80;52.30
3067;DHT22;1544;48.834;9.194;2023-02-03T17:02:17;8.80;52.50
3067;DHT22;1544;48.834;9.194;2023-02-03T17:04:52;8.80;53.30
3067;DHT22;1544;48.834;9.194;2023-02-03T17:07:27;8.80;52.90
3067;DHT22;1544;48.834;9.194;2023-02-03T17:10:02;8.90;52.60
3067;DHT22;1544;48.834;9.194;2023-02-03T17:12:37;8.90;52.00
3067;DHT22;1544;48.834;9.194;2023-02-03T17:15:13;8.90;51.90
3067;DHT22;1544;48.834;9.194;2023-02-03T17:17:48;8.90;51.60
3067;DHT22;1544;48.834;9.194;2023-02-03T17:20:23;8.90;51.60
3067;DHT22;1544;48.834;9.194;2023-02-03T17:22:58;9.00;51.30
3067;DHT22;1544;48.834;9.194;2023-02-03T17:25:34;9.00;50.60
3067;DHT22;1544;48.834;9.194;2023-02-03T17:28:10;9.00;50.60
3067;DHT22;1544;48.834;9.194;2023-02-03T17:31:02;9.00;50.80
3067;DHT22;1544;48.834;9.194;2023-02-03T17:33:38;9.00;50.50
3067;DHT22;1544;48.834;9.194;2023-02-03T17:36:15;9.00;49.90
3067;DHT22;1544;48.834;9.194;2023-02-03T17:38:53;9.00;49.90
3067;DHT22;1544;48.834;9.194;2023-02-03T17:41:48;9.00;50.20
3067;DHT22;1544;48.834;9.194;2023-02-03T17:44:43;8.90;50.30
3067;DHT22;1544;48.834;9.194;2023-02-03T17:47:36;8.90;49.80
3067;DHT22;1544;48.834;9.194;2023-02-03T17:50:28;9.00;49.90
3067;DHT22;1544;48.834;9.194;2023-02-03T17:53:21;9.00;49.20
3067;DHT22;1544;48.834;9.194;2023-02-03T17:55:56;9.00;49.50
3067;DHT22;1544;48.834;9.194;2023-02-03T17:58:31;9.10;48.90
3067;DHT22;1544;48.834;9.194;2023-02-03T18:01:11;9.10;48.60
3067;DHT22;1544;48.834;9.194;2023-02-03T18:03:54;9.10;48.50
3067;DHT22;1544;48.834;9.194;2023-02-03T18:06:31;9.10;48.00
3067;DHT22;1544;48.834;9.194;2023-02-03T18:09:08;9.20;47.70
3067;DHT22;1544;48.834;9.194;2023-02-03T18:11:44;9.20;47.30
3067;DHT22;1544;48.834;9.194;2023-02-03T18:14:19;9.20;47.40
3067;DHT22;1544;48.834;9.194;2023-02-03T18:16:54;9.20;47.60
3067;DHT22;1544;48.834;9.194;2023-02-03T18:19:29;9.30;47.20
3067;DHT22;1544;48.834;9.194;2023-02-03T18:22:04;9.30;47.20
3067;DHT22;1544;48.834;9.194;2023-02-03T18:24:39;9.20;47.00
3067;DHT22;1544;48.834;9.194;2023-02-03T18:27:18;9.30;47.10
3067;DHT22;1544;48.834;9.194;2023-02-03T18:29:53;9.30;47.00
3067;DHT22;1544;48.834;9.194;2023-02-03T18:32:28;9.40;46.80
3067;DHT22;1544;48.834;9.194;2023-02-03T18:35:03;8.70;46.30
3067;DHT22;1544;48.834;9.194;2023-02-03T18:37:40;9.30;47.30
3067;DHT22;1544;48.834;9.194;2023-02-03T18:40:15;9.30;47.90
3067;DHT22;1544;48.834;9.194;2023-02-03T18:42:50;9.30;48.30
3067;DHT22;1544;48.834;9.194;2023-02-03T18:45:25;9.30;48.50
3067;DHT22;1544;48.834;9.194;2023-02-03T18:48:00;9.20;49.00
3067;DHT22;1544;48.834;9.194;2023-02-03T18:50:35;9.20;49.80
3067;DHT22;1544;48.834;9.194;2023-02-03T18:53:10;9.20;50.40
3067;DHT22;1544;48.834;9.194;2023-02-03T18:55:45;9.20;50.80
3067;DHT22;1544;48.834;9.194;2023-02-03T18:58:20;9.20;51.20
3067;DHT22;1544;48.834;9.194;2023-02-03T19:00:55;9.20;51.70
3067;DHT22;1544;48.834;9.194;2023-02-03T19:03:33;9.20;51.50
3067;DHT22;1544;48.834;9.194;2023-02-03T19:06:08;7.80;50.80
3067;DHT22;1544;48.834;9.194;2023-02-03T19:08:46;9.10;52.10
3067;DHT22;1544;48.834;9.194;2023-02-03T19:11:21;9.20;52.10
3067;DHT22;1544;48.834;9.194;2023-02-03T19:13:56;9.20;52.10
3067;DHT22;1544;48.834;9.194;2023-02-03T19:16:31;9.10;52.30
3067;DHT22;1544;48.834;9.194;2023-02-03T19:19:06;9.20;52.20